首页
METAR-TAF:

METAR-TAF

机场 :

新西伯利亚, 俄罗斯

托尔马切沃机场

纬度: 55-01N, 经度: 082-38E, 海拔: 111米

当前天气观测

该预报发布于10分钟前的00:00 UTC
风速4节,风向南转西南
温度 -19°C
湿度 84%
气压 1028 hPa
能見度: 8000
少量云层高于1000英尺

METAR: UNNT 250000Z 21002MPS 8000 FEW010 M19/M21 Q1028 R25/810160 R16/810160 NOSIG RMK QFE761/1015

时间: 07:10 (00:10 UTC)

预报

该预报发布于1小时和10分钟前的23:00 UTC
预报有效从25日的 00点(UTC)到 25日的 24点(UTC)
风速6节,风向
能見度: 3100
多云层高于1100英尺
轻雾, 烟
短暂存在
从 25日的 00点(UTC)到 25日的 07点(UTC)
能見度: 0600
散云层高于200英尺
多云层高于500英尺
冻雾
成为
从 25日的 07点(UTC)到 25日的 08点(UTC)
能见度10公里或以上
散云层高于2000英尺
短暂存在
从 25日的 15点(UTC)到 25日的 24点(UTC)
能見度: 3100
少量云层高于300英尺
轻雾, 烟

TAF: UNNT 242300Z 2500/2524 19003MPS 3100 BR FU BKN011 TEMPO 2500/2507 0600 FZFG SCT002 BKN005 BECMG 2507/2508 9999 NSW SCT020 TEMPO 2515/2524 3100 BR FU FEW003

超过4000个机场的气象观测和天气预报(METAR&TAF报告)。

可查询的气象台以黄色和红色小点在地图上表示。

将鼠标移到小点上方,可查看气象台名称。

然后点击查看天气观测和预报。

如需切换地图:点击带黑十字的绿色按钮放大地图;点击带横线的绿色按钮缩小地图;或者点击绿色箭头查看邻近地区的地图。


METAR-TAF: